Time;durP1;ratioP1;P1;durP2;ratioP2;P2;SDS_P1;SDS_P2;PMS_P1;PMS_P2;Temp;Humidity;BMP_temperature;BMP_pressure;BME280_temperature;BME280_humidity;BME280_pressure;Samples;Min_cycle;Max_cycle;Signal;HPM_P1;HPM_P2
2021/08/15 00:00:37;;;;;;;8.88;3.42;;;15.10;99.90;;;;;;5073125;28;20028;-68
2021/08/15 00:03:03;;;;;;;5.88;3.55;;;15.10;99.90;;;;;;5073270;28;20035;-68
2021/08/15 00:05:29;;;;;;;7.80;3.75;;;15.10;99.90;;;;;;5073238;28;20399;-68
2021/08/15 00:07:55;;;;;;;5.03;3.80;;;15.10;99.90;;;;;;5073448;28;20108;-68
2021/08/15 00:10:21;;;;;;;6.03;3.35;;;15.10;99.90;;;;;;5073138;28;20021;-68
2021/08/15 00:12:47;;;;;;;10.02;3.78;;;15.10;99.90;;;;;;5072974;28;20479;-68
2021/08/15 00:15:14;;;;;;;10.68;4.13;;;15.10;99.90;;;;;;5072988;28;20082;-68
2021/08/15 00:17:41;;;;;;;9.80;4.18;;;15.10;99.90;;;;;;5073094;28;20085;-68
2021/08/15 00:20:09;;;;;;;7.43;3.65;;;15.10;99.90;;;;;;5072852;28;20024;-68
2021/08/15 00:22:42;;;;;;;5.70;3.60;;;15.10;99.90;;;;;;5072979;28;20491;-68
2021/08/15 00:25:11;;;;;;;7.55;3.33;;;15.10;99.90;;;;;;5072937;28;20115;-68
2021/08/15 00:27:38;;;;;;;10.05;3.70;;;15.20;99.90;;;;;;5072943;28;20039;-68
2021/08/15 00:30:04;;;;;;;7.25;3.67;;;15.20;99.90;;;;;;5072949;28;20503;-69
2021/08/15 00:32:30;;;;;;;8.32;3.53;;;15.20;99.90;;;;;;5072795;28;20043;-68
2021/08/15 00:34:56;;;;;;;6.30;3.78;;;15.10;99.90;;;;;;5072444;28;20400;-68
2021/08/15 00:37:22;;;;;;;5.70;3.70;;;15.00;99.90;;;;;;5072663;28;20020;-68
2021/08/15 00:39:48;;;;;;;7.70;3.42;;;15.00;99.90;;;;;;5072835;28;20426;-68
2021/08/15 00:42:14;;;;;;;7.38;3.63;;;14.90;99.90;;;;;;5072609;28;20028;-68
2021/08/15 00:44:40;;;;;;;7.50;3.85;;;15.00;99.90;;;;;;5072491;28;20074;-68
2021/08/15 00:47:07;;;;;;;6.35;3.67;;;15.00;99.90;;;;;;5072233;28;20578;-68
2021/08/15 00:49:33;;;;;;;6.90;3.83;;;15.10;99.90;;;;;;5072405;28;20056;-68
2021/08/15 00:51:58;;;;;;;6.47;3.58;;;15.00;99.90;;;;;;5071911;28;20083;-68
2021/08/15 00:54:24;;;;;;;6.85;3.25;;;14.90;99.90;;;;;;5072595;28;20032;-68
2021/08/15 00:56:53;;;;;;;6.15;3.40;;;14.90;99.90;;;;;;5072366;28;20477;-68
2021/08/15 00:59:20;;;;;;;9.88;3.70;;;14.80;99.90;;;;;;5072109;28;20479;-68
2021/08/15 01:01:45;;;;;;;6.63;3.58;;;14.80;99.90;;;;;;5072417;28;20032;-68
2021/08/15 01:04:11;;;;;;;6.15;3.40;;;14.80;99.90;;;;;;5072333;28;20031;-68
2021/08/15 01:06:40;;;;;;;9.45;3.22;;;14.80;99.90;;;;;;5072413;28;20056;-70
2021/08/15 01:09:06;;;;;;;4.32;3.38;;;14.80;99.90;;;;;;5071988;28;20024;-68
2021/08/15 01:11:33;;;;;;;11.55;3.83;;;14.80;99.90;;;;;;5072096;28;20032;-68
2021/08/15 01:14:05;;;;;;;6.03;3.08;;;14.70;99.90;;;;;;5071829;28;20020;-68
2021/08/15 01:16:31;;;;;;;7.75;3.53;;;14.70;99.90;;;;;;5072254;28;20031;-68
2021/08/15 01:48:01;;;;;;;4.68;3.10;;;14.90;99.90;;;;;;5071777;28;20029;-70
2021/08/15 01:50:27;;;;;;;6.78;3.67;;;15.00;99.90;;;;;;5071750;28;20451;-70
2021/08/15 01:52:53;;;;;;;4.68;2.78;;;15.00;99.90;;;;;;5071522;28;20106;-70
2021/08/15 01:55:18;;;;;;;5.93;3.10;;;15.00;99.90;;;;;;5071687;28;20040;-70
2021/08/15 01:57:44;;;;;;;6.00;3.08;;;14.90;99.90;;;;;;5071522;28;20027;-70
2021/08/15 02:00:10;;;;;;;4.20;2.80;;;14.90;99.90;;;;;;5071978;28;20433;-70
2021/08/15 02:02:40;;;;;;;4.32;2.75;;;14.90;99.90;;;;;;5071569;28;20032;-70
2021/08/15 02:05:06;;;;;;;3.60;2.70;;;14.90;99.90;;;;;;5071429;28;20040;-70
2021/08/15 02:07:32;;;;;;;4.65;2.70;;;14.80;99.90;;;;;;5071785;28;20067;-70
2021/08/15 02:09:57;;;;;;;4.93;2.67;;;14.70;99.90;;;;;;5071407;28;20021;-70
2021/08/15 02:12:23;;;;;;;4.13;2.50;;;14.70;99.90;;;;;;5074913;28;20021;-70
2021/08/15 02:14:49;;;;;;;5.22;2.75;;;14.60;99.90;;;;;;5075571;28;20032;-70
2021/08/15 02:17:15;;;;;;;4.88;2.75;;;14.60;99.90;;;;;;5075632;28;20389;-70
2021/08/15 02:19:40;;;;;;;3.50;2.58;;;14.60;99.90;;;;;;5075726;28;20028;-70
2021/08/15 02:22:06;;;;;;;5.88;2.50;;;14.60;99.90;;;;;;5075385;28;20021;-70
2021/08/15 02:24:32;;;;;;;3.40;2.30;;;14.60;99.90;;;;;;5075206;28;20117;-70
2021/08/15 02:26:57;;;;;;;5.65;2.70;;;14.60;99.90;;;;;;5075059;28;20552;-70
2021/08/15 02:29:23;;;;;;;5.88;3.10;;;14.60;99.90;;;;;;5075434;28;20024;-70
2021/08/15 02:31:49;;;;;;;6.40;2.83;;;14.60;99.90;;;;;;5074913;28;20427;-70
2021/08/15 02:34:14;;;;;;;3.47;2.78;;;14.70;99.90;;;;;;5075259;28;20032;-70
2021/08/15 02:36:41;;;;;;;5.88;2.30;;;14.70;99.90;;;;;;5075007;28;20373;-70
2021/08/15 02:39:06;;;;;;;5.85;2.95;;;14.60;99.90;;;;;;5075152;28;20032;-70
2021/08/15 02:41:32;;;;;;;7.93;4.05;;;14.70;99.90;;;;;;5074834;28;20484;-70
2021/08/15 02:43:58;;;;;;;6.20;4.22;;;14.60;99.90;;;;;;5074700;28;20036;-70
2021/08/15 02:46:23;;;;;;;12.30;5.53;;;14.60;99.90;;;;;;5074989;28;20032;-70
2021/08/15 02:48:49;;;;;;;9.13;4.57;;;14.60;99.90;;;;;;5074598;28;20545;-70
2021/08/15 02:51:15;;;;;;;7.38;4.53;;;14.60;99.90;;;;;;5074410;28;20031;-68
2021/08/15 02:53:40;;;;;;;5.90;4.50;;;14.60;99.90;;;;;;5074992;28;20107;-68
2021/08/15 02:56:06;;;;;;;9.88;5.10;;;14.50;99.90;;;;;;5074334;28;20400;-68
2021/08/15 02:58:32;;;;;;;11.95;4.53;;;14.50;99.90;;;;;;5074643;28;20112;-68
2021/08/15 03:00:58;;;;;;;7.63;4.32;;;14.50;99.90;;;;;;5074252;28;20032;-68
2021/08/15 03:03:23;;;;;;;14.15;4.93;;;14.50;99.90;;;;;;5073461;28;20031;-68
2021/08/15 03:05:49;;;;;;;12.00;4.57;;;14.50;99.90;;;;;;5074197;28;20024;-69
2021/08/15 03:08:15;;;;;;;17.60;5.00;;;14.50;99.90;;;;;;5074433;28;20020;-70
2021/08/15 03:10:41;;;;;;;15.57;4.65;;;14.50;99.90;;;;;;5074405;28;20033;-70
2021/08/15 03:13:07;;;;;;;8.98;4.75;;;14.50;99.90;;;;;;5074357;28;20025;-70
2021/08/15 03:15:33;;;;;;;9.65;4.50;;;14.50;99.90;;;;;;5074307;28;20040;-70
2021/08/15 03:17:59;;;;;;;12.93;3.95;;;14.50;99.90;;;;;;5074010;28;20353;-70
2021/08/15 03:20:27;;;;;;;7.13;3.88;;;14.40;99.90;;;;;;5074219;28;20090;-70
2021/08/15 03:22:52;;;;;;;6.35;4.40;;;14.40;99.90;;;;;;5074162;28;20020;-70
2021/08/15 03:25:18;;;;;;;4.15;3.55;;;14.40;99.90;;;;;;5074302;28;20031;-70
2021/08/15 03:27:44;;;;;;;3.55;3.25;;;14.30;99.90;;;;;;5074030;28;20025;-70
2021/08/15 03:30:10;;;;;;;3.83;3.42;;;14.40;99.90;;;;;;5073930;28;20025;-70
2021/08/15 03:32:35;;;;;;;5.57;3.53;;;14.50;99.90;;;;;;5073904;28;20021;-70
2021/08/15 03:35:01;;;;;;;4.82;3.30;;;14.40;99.90;;;;;;5072499;28;20395;-70
2021/08/15 03:37:27;;;;;;;6.78;3.05;;;14.40;99.90;;;;;;5073836;28;20096;-70
2021/08/15 03:39:53;;;;;;;5.32;3.00;;;14.50;99.90;;;;;;5074088;28;20024;-70
2021/08/15 03:42:19;;;;;;;3.42;3.08;;;14.50;99.90;;;;;;5073843;28;20111;-70
2021/08/15 03:44:45;;;;;;;6.75;2.90;;;14.50;99.90;;;;;;5073987;28;20096;-70
2021/08/15 03:47:10;;;;;;;3.38;2.80;;;14.50;99.90;;;;;;5073558;28;20032;-70
2021/08/15 03:49:36;;;;;;;4.90;2.83;;;14.50;99.90;;;;;;5073747;28;20025;-70
2021/08/15 03:52:02;;;;;;;3.40;2.58;;;14.60;99.90;;;;;;5073319;28;20499;-70
2021/08/15 03:54:28;;;;;;;3.50;2.50;;;14.80;99.90;;;;;;5073552;28;20432;-70
2021/08/15 03:56:53;;;;;;;3.65;2.10;;;15.00;99.90;;;;;;5073591;28;20537;-70
2021/08/15 03:59:21;;;;;;;7.95;2.75;;;15.00;99.90;;;;;;5073851;28;20017;-70
2021/08/15 04:01:47;;;;;;;4.78;2.40;;;15.10;99.90;;;;;;5073641;28;20158;-70
2021/08/15 04:04:13;;;;;;;4.18;2.28;;;15.10;99.90;;;;;;5073250;28;20020;-70
2021/08/15 04:06:39;;;;;;;4.03;3.45;;;15.20;99.90;;;;;;5073263;28;20025;-70
2021/08/15 04:09:05;;;;;;;6.68;3.75;;;15.30;99.90;;;;;;5073101;28;20077;-70
2021/08/15 04:11:31;;;;;;;5.68;3.95;;;15.50;99.90;;;;;;5073484;28;20024;-70
2021/08/15 04:13:56;;;;;;;5.35;4.55;;;15.50;99.90;;;;;;5072978;28;20438;-70
2021/08/15 04:16:22;;;;;;;6.35;3.78;;;15.60;99.90;;;;;;5072943;28;20044;-70
2021/08/15 04:18:48;;;;;;;4.25;3.58;;;15.60;99.90;;;;;;5073122;28;20027;-70
2021/08/15 04:21:13;;;;;;;4.60;3.47;;;15.60;99.90;;;;;;5073062;28;20039;-70
2021/08/15 04:23:39;;;;;;;5.35;3.38;;;15.60;99.90;;;;;;5072974;28;20398;-68
2021/08/15 04:26:05;;;;;;;7.28;3.75;;;15.60;99.90;;;;;;5073005;28;20031;-68
2021/08/15 04:28:31;;;;;;;7.93;4.53;;;15.60;99.90;;;;;;5072895;28;20077;-68
2021/08/15 04:30:57;;;;;;;5.90;4.82;;;15.70;99.90;;;;;;5072995;28;20122;-68
2021/08/15 04:33:26;;;;;;;6.05;3.75;;;16.10;99.90;;;;;;5072319;28;20070;-68
2021/08/15 04:35:52;;;;;;;7.35;3.78;;;16.50;99.90;;;;;;5072701;28;20123;-70
2021/08/15 04:38:20;;;;;;;2.88;2.60;;;17.00;99.90;;;;;;5072629;28;20111;-70
2021/08/15 04:40:45;;;;;;;6.72;2.65;;;17.40;99.90;;;;;;5072723;28;20074;-70
2021/08/15 04:43:11;;;;;;;4.22;2.83;;;17.60;99.90;;;;;;5072635;28;20028;-70
2021/08/15 04:45:37;;;;;;;4.93;2.55;;;17.80;99.90;;;;;;5072550;28;20035;-70
2021/08/15 04:48:03;;;;;;;4.53;2.28;;;17.70;99.90;;;;;;5072260;28;20078;-70
2021/08/15 04:50:29;;;;;;;5.15;2.50;;;17.70;99.90;;;;;;5072531;28;20037;-70
2021/08/15 04:52:55;;;;;;;4.65;2.50;;;17.60;99.90;;;;;;5072345;28;20049;-70
2021/08/15 04:55:21;;;;;;;4.55;2.28;;;17.60;99.90;;;;;;5072302;28;20376;-70
2021/08/15 04:57:47;;;;;;;5.00;2.60;;;17.70;99.90;;;;;;5072316;28;20055;-70
2021/08/15 05:00:13;;;;;;;5.03;2.42;;;17.80;99.90;;;;;;5072855;28;20971;-70
2021/08/15 05:02:38;;;;;;;7.32;2.58;;;17.80;99.90;;;;;;5072531;28;20024;-70
2021/08/15 05:05:04;;;;;;;5.15;2.22;;;17.80;99.90;;;;;;5072085;28;20025;-70
2021/08/15 05:07:30;;;;;;;3.03;1.83;;;17.80;99.90;;;;;;5072528;28;20116;-70
2021/08/15 05:09:56;;;;;;;4.35;2.10;;;17.70;99.90;;;;;;5072359;28;20430;-70
2021/08/15 05:12:21;;;;;;;3.25;2.10;;;17.70;99.90;;;;;;5072022;28;20480;-70
2021/08/15 05:14:47;;;;;;;5.07;2.30;;;17.70;99.90;;;;;;5072401;28;20033;-70
2021/08/15 05:17:13;;;;;;;5.18;2.00;;;17.70;99.90;;;;;;5071826;28;20063;-68
2021/08/15 05:19:38;;;;;;;3.55;1.80;;;17.70;99.90;;;;;;5072131;28;20154;-68
2021/08/15 05:22:04;;;;;;;3.97;2.10;;;17.70;99.90;;;;;;5071785;28;20032;-68
2021/08/15 05:24:30;;;;;;;4.68;2.20;;;17.70;99.90;;;;;;5071961;28;20024;-68
2021/08/15 05:26:55;;;;;;;3.95;2.38;;;17.70;99.90;;;;;;5071714;28;20029;-68
2021/08/15 05:29:21;;;;;;;4.55;1.90;;;18.00;99.90;;;;;;5072021;28;20029;-68
2021/08/15 05:31:47;;;;;;;3.47;1.70;;;18.40;99.90;;;;;;5072185;28;20040;-68
2021/08/15 05:34:13;;;;;;;5.05;1.60;;;18.50;99.90;;;;;;5071927;28;20379;-68
2021/08/15 05:36:38;;;;;;;3.58;1.50;;;18.70;99.90;;;;;;5072108;28;20027;-68
2021/08/15 05:39:05;;;;;;;8.15;1.67;;;18.70;99.90;;;;;;5071745;28;20024;-68
2021/08/15 05:41:33;;;;;;;8.95;1.70;;;18.70;99.90;;;;;;5072008;28;20025;-68
2021/08/15 05:43:59;;;;;;;5.30;1.90;;;18.70;99.90;;;;;;5071641;28;20476;-68
2021/08/15 05:46:25;;;;;;;2.97;1.17;;;18.60;99.90;;;;;;5073706;28;20031;-68
2021/08/15 05:48:50;;;;;;;4.03;1.70;;;18.60;99.90;;;;;;5075996;28;20031;-68
2021/08/15 05:51:16;;;;;;;4.05;1.52;;;18.50;99.90;;;;;;5075986;28;20029;-68
2021/08/15 05:53:42;;;;;;;4.55;1.63;;;18.50;99.90;;;;;;5075692;28;20075;-68
2021/08/15 05:56:07;;;;;;;7.53;1.52;;;18.50;99.90;;;;;;5076191;28;20033;-69
2021/08/15 05:58:33;;;;;;;3.35;1.20;;;18.40;99.90;;;;;;5075742;28;20103;-68
2021/08/15 06:00:59;;;;;;;3.88;1.60;;;18.40;99.90;;;;;;5075615;28;20035;-68
2021/08/15 06:03:24;;;;;;;7.15;1.70;;;18.30;99.90;;;;;;5074296;28;20368;-68
2021/08/15 06:05:50;;;;;;;5.40;1.73;;;18.20;99.90;;;;;;5076162;28;20460;-69
2021/08/15 06:08:16;;;;;;;7.72;2.58;;;18.30;99.90;;;;;;5075325;28;20353;-69
2021/08/15 06:10:42;;;;;;;5.60;1.75;;;18.40;99.90;;;;;;5075575;28;20020;-69
2021/08/15 06:13:09;;;;;;;3.47;1.65;;;18.50;99.90;;;;;;5075153;28;20059;-69
2021/08/15 06:15:35;;;;;;;5.93;1.60;;;18.60;99.90;;;;;;5075695;28;20036;-68
2021/08/15 06:18:01;;;;;;;3.35;1.42;;;18.70;99.90;;;;;;5075092;28;20478;-69
2021/08/15 06:20:26;;;;;;;3.88;1.58;;;18.90;99.90;;;;;;5075647;28;20024;-69
2021/08/15 06:22:52;;;;;;;3.50;1.52;;;19.40;99.90;;;;;;5075273;28;20489;-69
2021/08/15 06:25:19;;;;;;;4.07;1.73;;;19.70;99.90;;;;;;5073838;28;20024;-69
2021/08/15 06:27:45;;;;;;;5.68;2.08;;;20.00;99.90;;;;;;5075424;28;20029;-69
2021/08/15 06:30:12;;;;;;;2.53;1.40;;;20.10;99.90;;;;;;5075106;28;20028;-69
2021/08/15 06:32:49;;;;;;;3.05;1.67;;;20.40;99.90;;;;;;5074957;28;20082;-69
2021/08/15 06:35:19;;;;;;;4.07;1.70;;;20.60;99.90;;;;;;5074919;28;20388;-69
2021/08/15 06:37:46;;;;;;;4.60;1.95;;;20.60;99.90;;;;;;5075319;28;20016;-69
2021/08/15 06:40:13;;;;;;;6.80;1.48;;;20.60;99.90;;;;;;5075152;28;20028;-69
2021/08/15 06:42:39;;;;;;;2.67;1.33;;;20.60;99.90;;;;;;5075085;28;20052;-70
2021/08/15 06:45:05;;;;;;;3.22;1.70;;;20.40;99.90;;;;;;5074730;28;20129;-69
2021/08/15 06:47:31;;;;;;;4.30;1.70;;;20.30;99.90;;;;;;5074962;28;20024;-68
2021/08/15 06:49:57;;;;;;;5.40;1.90;;;20.20;99.90;;;;;;5074722;28;20476;-69
2021/08/15 06:52:22;;;;;;;3.85;1.40;;;20.20;99.90;;;;;;5074554;28;20094;-69
2021/08/15 06:54:48;;;;;;;2.85;1.55;;;20.30;99.90;;;;;;5074639;28;20032;-70
2021/08/15 06:57:14;;;;;;;6.25;1.83;;;20.30;99.90;;;;;;5074076;28;20544;-71
2021/08/15 06:59:40;;;;;;;3.72;1.38;;;20.30;99.90;;;;;;5074702;28;20384;-71
2021/08/15 07:02:06;;;;;;;5.40;1.83;;;20.10;99.90;;;;;;5074313;28;20442;-71
2021/08/15 07:04:32;;;;;;;3.28;1.63;;;20.20;99.90;;;;;;5074497;28;20542;-69
2021/08/15 07:06:58;;;;;;;3.72;2.13;;;20.30;99.90;;;;;;5074421;28;20025;-69
2021/08/15 07:09:23;;;;;;;2.20;1.40;;;20.30;99.90;;;;;;5074676;28;20021;-69
2021/08/15 07:11:49;;;;;;;2.60;1.35;;;20.10;99.90;;;;;;5074603;28;20063;-69
2021/08/15 07:14:15;;;;;;;2.22;1.38;;;19.90;99.90;;;;;;5074338;28;20028;-69
2021/08/15 07:16:40;;;;;;;6.88;1.75;;;19.80;99.90;;;;;;5074421;28;20031;-69
2021/08/15 07:19:06;;;;;;;2.50;1.23;;;19.80;99.90;;;;;;5074445;28;20036;-69
2021/08/15 07:21:32;;;;;;;5.25;1.48;;;19.70;99.90;;;;;;5074229;28;20048;-69
2021/08/15 07:23:58;;;;;;;6.10;2.03;;;19.60;99.90;;;;;;5074530;28;20075;-69
2021/08/15 07:26:24;;;;;;;8.38;1.63;;;19.50;99.90;;;;;;5073991;28;20024;-69
2021/08/15 07:28:50;;;;;;;3.90;1.50;;;19.40;99.90;;;;;;5074038;28;20032;-69
2021/08/15 07:31:16;;;;;;;2.47;1.27;;;19.40;99.90;;;;;;5074135;28;20032;-69
2021/08/15 07:33:42;;;;;;;4.85;1.63;;;19.30;99.90;;;;;;5073789;28;20428;-69
2021/08/15 07:36:07;;;;;;;10.63;1.85;;;19.30;99.90;;;;;;5073832;28;20101;-68
2021/08/15 07:38:33;;;;;;;3.38;1.80;;;19.40;99.90;;;;;;5073934;28;20020;-67
2021/08/15 07:40:59;;;;;;;4.85;1.40;;;19.50;99.90;;;;;;5073982;28;20415;-67
2021/08/15 07:43:25;;;;;;;5.47;1.83;;;19.40;99.90;;;;;;5073743;28;20021;-67
2021/08/15 07:45:51;;;;;;;2.90;1.63;;;19.30;99.90;;;;;;5073896;28;20027;-69
2021/08/15 07:48:17;;;;;;;6.53;1.98;;;19.30;99.90;;;;;;5073741;28;20029;-70
2021/08/15 07:50:43;;;;;;;5.38;1.20;;;19.30;99.90;;;;;;5073867;28;20050;-73
2021/08/15 07:53:24;;;;;;;2.55;1.13;;;19.40;99.90;;;;;;5073440;28;20052;-71
2021/08/15 07:55:53;;;;;;;3.63;1.45;;;19.60;99.90;;;;;;5073782;28;20500;-71
2021/08/15 07:58:19;;;;;;;4.20;1.50;;;19.80;99.90;;;;;;5073886;28;20025;-74
2021/08/15 08:00:46;;;;;;;5.05;1.60;;;20.00;99.90;;;;;;5073557;28;20028;-74
2021/08/15 08:03:12;;;;;;;3.88;1.52;;;20.10;99.90;;;;;;5073420;28;20056;-73
2021/08/15 08:05:38;;;;;;;2.17;1.20;;;20.10;99.90;;;;;;5073518;28;20031;-71
2021/08/15 08:08:04;;;;;;;4.97;1.67;;;20.10;99.90;;;;;;5072878;28;20379;-71
2021/08/15 08:10:30;;;;;;;2.88;1.70;;;20.00;99.90;;;;;;5073037;28;20024;-71
2021/08/15 08:12:56;;;;;;;2.95;1.52;;;19.80;99.90;;;;;;5073309;28;20032;-73
2021/08/15 08:15:22;;;;;;;2.92;1.70;;;19.60;99.90;;;;;;5073140;28;20037;-72
2021/08/15 08:17:48;;;;;;;4.35;2.13;;;19.40;99.90;;;;;;5073096;28;20044;-72
2021/08/15 08:20:15;;;;;;;4.82;1.70;;;19.30;99.90;;;;;;5072960;28;20028;-72
2021/08/15 08:22:41;;;;;;;4.22;1.98;;;19.30;99.90;;;;;;5073102;28;20040;-69
2021/08/15 08:25:07;;;;;;;8.32;1.58;;;19.30;99.90;;;;;;5072857;28;20051;-69
2021/08/15 08:27:33;;;;;;;7.10;2.22;;;19.30;99.90;;;;;;5073019;28;20128;-71
2021/08/15 08:29:58;;;;;;;4.43;1.70;;;19.50;99.90;;;;;;5072837;28;20472;-71
2021/08/15 08:32:24;;;;;;;4.63;2.10;;;19.40;99.90;;;;;;5072702;28;20104;-71
2021/08/15 08:34:50;;;;;;;8.23;2.40;;;19.30;99.90;;;;;;5072949;28;20074;-71
2021/08/15 08:37:18;;;;;;;5.38;1.77;;;19.30;99.90;;;;;;5072567;28;20742;-72
2021/08/15 08:39:43;;;;;;;4.68;1.77;;;19.20;99.90;;;;;;5072790;28;20063;-72
2021/08/15 08:42:11;;;;;;;4.75;1.63;;;19.10;99.90;;;;;;5072514;28;20063;-69
2021/08/15 08:44:38;;;;;;;5.85;2.00;;;19.30;99.90;;;;;;5072871;28;20020;-69
2021/08/15 08:47:07;;;;;;;5.03;1.58;;;19.20;99.90;;;;;;5072596;28;20035;-69
2021/08/15 08:49:34;;;;;;;6.97;1.93;;;18.90;99.90;;;;;;5072586;28;20491;-68
2021/08/15 08:52:00;;;;;;;4.85;1.55;;;18.70;99.90;;;;;;5072208;28;20287;-71
2021/08/15 08:54:27;;;;;;;3.58;1.50;;;18.70;99.90;;;;;;5071560;28;20029;-72
2021/08/15 08:56:54;;;;;;;5.93;1.50;;;18.80;99.90;;;;;;5071167;28;20054;-71
2021/08/15 08:59:20;;;;;;;4.90;1.83;;;19.10;99.90;;;;;;5072150;28;20021;-71
2021/08/15 09:01:46;;;;;;;3.15;1.40;;;19.00;99.90;;;;;;5072493;28;20341;-71
2021/08/15 09:04:13;;;;;;;5.38;1.58;;;18.90;99.90;;;;;;5072036;28;20465;-67
2021/08/15 09:06:39;;;;;;;3.65;1.27;;;18.80;99.90;;;;;;5072497;28;20434;-72
2021/08/15 09:09:17;;;;;;;4.53;1.30;;;18.80;99.90;;;;;;5071997;28;20027;-72
2021/08/15 09:11:45;;;;;;;7.15;1.83;;;18.90;99.90;;;;;;5072076;28;20033;-67
2021/08/15 09:14:16;;;;;;;5.65;1.70;;;18.90;99.90;;;;;;5072044;28;20017;-67
2021/08/15 09:16:59;;;;;;;4.40;1.40;;;18.80;99.90;;;;;;5072299;28;20036;-67
2021/08/15 09:19:49;;;;;;;6.13;2.35;;;18.80;99.90;;;;;;5071926;28;20021;-67
2021/08/15 09:22:21;;;;;;;5.00;1.60;;;19.00;99.90;;;;;;5072154;28;20033;-67
2021/08/15 09:25:03;;;;;;;3.13;1.30;;;18.90;99.90;;;;;;5072999;28;20111;-68
2021/08/15 09:27:33;;;;;;;4.70;1.13;;;18.90;99.90;;;;;;5071991;28;20021;-69
2021/08/15 09:30:05;;;;;;;;;;;18.70;99.90;;;;;;5072425;28;20028;-72
2021/08/15 09:32:31;;;;;;;6.03;1.70;;;18.70;99.90;;;;;;5071804;28;19951;-72
2021/08/15 09:35:02;;;;;;;6.75;1.92;;;18.50;99.90;;;;;;5071842;28;20036;-73
2021/08/15 09:37:32;;;;;;;6.75;1.60;;;18.50;99.90;;;;;;5070745;28;20037;-70
2021/08/15 09:39:58;;;;;;;5.68;1.70;;;18.30;99.90;;;;;;5071936;28;20024;-72
2021/08/15 09:42:44;;;;;;;5.45;1.60;;;18.30;99.90;;;;;;5071965;28;20582;-72
2021/08/15 09:45:14;;;;;;;4.50;1.50;;;18.40;99.90;;;;;;5071834;28;20031;-72
2021/08/15 09:47:41;;;;;;;5.97;1.67;;;18.40;99.90;;;;;;5072008;28;20109;-72
2021/08/15 09:50:20;;;;;;;5.30;1.73;;;18.50;99.90;;;;;;5071845;28;20029;-72
2021/08/15 09:52:46;;;;;;;5.57;2.07;;;18.70;99.90;;;;;;5071684;28;20056;-72
2021/08/15 09:55:13;;;;;;;7.75;1.77;;;18.90;99.90;;;;;;5071802;28;20107;-72
2021/08/15 09:57:39;;;;;;;4.15;1.60;;;18.90;99.90;;;;;;5071598;28;20033;-72
2021/08/15 10:00:23;;;;;;;5.22;1.55;;;18.90;99.90;;;;;;5071805;28;20032;-72
2021/08/15 10:02:49;;;;;;;3.95;1.63;;;18.80;99.90;;;;;;5071778;28;20096;-72
2021/08/15 10:05:15;;;;;;;6.85;1.70;;;18.80;99.90;;;;;;5071800;28;20037;-73
2021/08/15 10:07:43;;;;;;;4.60;2.03;;;18.80;99.90;;;;;;5071541;28;20027;-73
2021/08/15 10:10:13;;;;;;;6.20;1.90;;;18.90;99.90;;;;;;5071708;28;20107;-70
2021/08/15 10:12:39;;;;;;;6.72;1.67;;;18.90;99.90;;;;;;5071540;28;20040;-70
2021/08/15 10:15:15;;;;;;;5.70;1.80;;;19.00;99.90;;;;;;5071590;28;20134;-70
2021/08/15 10:17:45;;;;;;;5.43;2.10;;;19.10;99.90;;;;;;5071510;28;20426;-70
2021/08/15 10:20:17;;;;;;;3.88;1.30;;;19.10;99.90;;;;;;5071495;28;20024;-70
2021/08/15 10:22:44;;;;;;;4.10;1.35;;;19.00;99.90;;;;;;5071472;28;20029;-70
2021/08/15 10:25:29;;;;;;;3.33;1.10;;;18.90;99.90;;;;;;5071396;28;20038;-70
2021/08/15 10:27:55;;;;;;;4.75;1.70;;;18.90;99.90;;;;;;5071477;28;20016;-70
2021/08/15 10:30:20;;;;;;;6.97;1.70;;;19.00;99.90;;;;;;5071301;28;20097;-70
2021/08/15 10:32:55;;;;;;;5.25;1.63;;;19.00;99.90;;;;;;5073464;28;20031;-70
2021/08/15 10:35:38;;;;;;;5.70;1.60;;;19.00;99.90;;;;;;5074986;28;20035;-70
2021/08/15 10:38:09;;;;;;;8.13;1.38;;;19.10;99.90;;;;;;5075123;28;20546;-70
2021/08/15 10:40:41;;;;;;;16.27;2.60;;;19.10;99.90;;;;;;5075162;28;20100;-70
2021/08/15 10:43:12;;;;;;;5.13;1.10;;;19.20;99.90;;;;;;5075027;28;20059;-71
2021/08/15 10:45:39;;;;;;;4.20;1.20;;;19.20;99.90;;;;;;5075362;28;20092;-71
2021/08/15 10:48:04;;;;;;;4.88;1.65;;;19.20;99.90;;;;;;5075288;28;20047;-71
2021/08/15 10:50:48;;;;;;;4.47;1.52;;;19.20;99.90;;;;;;5074910;28;20023;-70
2021/08/15 10:53:26;;;;;;;6.75;2.20;;;19.30;99.90;;;;;;5074529;28;20131;-70
2021/08/15 10:55:53;;;;;;;5.97;1.77;;;19.40;99.90;;;;;;5074717;28;20072;-70
2021/08/15 10:58:42;;;;;;;3.97;1.40;;;19.50;99.90;;;;;;5074602;28;20082;-71
2021/08/15 11:01:18;;;;;;;6.05;1.42;;;19.50;99.90;;;;;;5074886;28;20024;-71
2021/08/15 11:03:54;;;;;;;2.88;1.20;;;19.50;99.90;;;;;;5074692;28;20032;-71
2021/08/15 11:06:47;;;;;;;6.15;0.93;;;19.60;99.90;;;;;;5074757;28;20031;-71
2021/08/15 11:09:14;;;;;;;3.88;1.63;;;19.50;99.90;;;;;;5074178;28;20102;-71
2021/08/15 11:12:06;;;;;;;5.88;1.00;;;19.40;99.90;;;;;;5074591;28;20032;-71
2021/08/15 11:14:32;;;;;;;3.85;1.00;;;19.40;99.90;;;;;;5074185;28;20605;-70
2021/08/15 11:17:13;;;;;;;5.95;1.27;;;19.30;99.90;;;;;;5074402;28;20032;-70
2021/08/15 11:19:40;;;;;;;4.07;1.15;;;19.20;99.90;;;;;;5074665;28;20027;-70
2021/08/15 11:22:24;;;;;;;7.88;1.42;;;19.10;99.90;;;;;;5074407;28;20033;-70
2021/08/15 11:24:55;;;;;;;5.65;1.70;;;19.00;99.90;;;;;;5073034;28;20020;-70
2021/08/15 11:27:36;;;;;;;4.53;1.33;;;19.00;99.90;;;;;;5074338;28;20032;-69
2021/08/15 11:30:18;;;;;;;9.57;1.40;;;19.00;99.90;;;;;;5074240;28;20472;-69
2021/08/15 11:32:52;;;;;;;2.53;1.05;;;19.00;99.90;;;;;;5074125;28;20030;-70
2021/08/15 11:35:18;;;;;;;3.15;1.20;;;19.00;99.90;;;;;;5074122;28;20376;-71
2021/08/15 11:37:53;;;;;;;4.38;1.40;;;19.10;99.90;;;;;;5074197;28;20031;-71
2021/08/15 11:40:25;;;;;;;6.90;1.20;;;19.20;99.90;;;;;;5073814;28;20475;-70
2021/08/15 11:43:19;;;;;;;9.30;1.85;;;19.10;99.90;;;;;;5073395;28;20029;-70
2021/08/15 11:45:47;;;;;;;3.13;1.17;;;19.10;99.90;;;;;;5073697;28;20017;-70
2021/08/15 11:48:18;;;;;;;5.53;1.17;;;19.20;99.90;;;;;;5073666;28;20048;-70
2021/08/15 11:50:49;;;;;;;3.70;1.20;;;19.20;99.90;;;;;;5074087;28;20548;-70
2021/08/15 11:56:21;;;;;;;2.72;1.10;;;19.30;99.90;;;;;;5073446;28;20075;-70
2021/08/15 11:58:57;;;;;;;6.03;1.23;;;19.30;99.90;;;;;;5073488;28;20036;-70
2021/08/15 12:01:25;;;;;;;3.05;1.10;;;19.40;99.90;;;;;;5073496;28;20021;-70
2021/08/15 12:03:58;;;;;;;5.75;1.60;;;19.40;99.90;;;;;;5073720;28;20059;-70
2021/08/15 12:06:25;;;;;;;5.65;1.02;;;19.40;99.90;;;;;;5073653;28;20099;-70
2021/08/15 12:08:50;;;;;;;3.38;1.23;;;19.40;99.90;;;;;;5073439;28;20446;-70
2021/08/15 12:11:32;;;;;;;6.25;1.35;;;19.40;99.90;;;;;;5073575;28;20116;-70
2021/08/15 12:14:12;;;;;;;9.10;1.35;;;19.40;99.90;;;;;;5073627;28;20035;-70
2021/08/15 12:16:39;;;;;;;2.38;1.08;;;19.50;99.90;;;;;;5073438;28;20443;-70
2021/08/15 12:19:06;;;;;;;4.55;1.20;;;19.50;99.90;;;;;;5073495;28;20094;-70
2021/08/15 12:21:33;;;;;;;4.88;1.17;;;19.40;99.90;;;;;;5073822;28;20103;-70
2021/08/15 12:24:20;;;;;;;2.92;1.05;;;19.40;99.90;;;;;;5072931;28;20491;-70
2021/08/15 12:26:52;;;;;;;9.35;1.40;;;19.30;99.90;;;;;;5067037;28;20021;-68
2021/08/15 12:29:32;;;;;;;5.25;0.95;;;19.30;99.90;;;;;;5072831;28;20024;-68
2021/08/15 12:32:07;;;;;;;17.75;1.30;;;19.30;99.90;;;;;;5071663;28;20031;-69
2021/08/15 12:34:35;;;;;;;17.00;1.88;;;19.30;99.90;;;;;;5072507;28;20169;-69
2021/08/15 12:37:13;;;;;;;5.53;1.15;;;19.30;99.90;;;;;;5072879;28;20039;-68
2021/08/15 12:39:42;;;;;;;4.38;1.08;;;19.30;99.90;;;;;;5072855;28;20117;-68
2021/08/15 12:42:18;;;;;;;4.97;1.30;;;19.40;99.90;;;;;;5073032;28;20433;-69
2021/08/15 12:44:58;;;;;;;2.20;1.20;;;19.40;99.90;;;;;;5072583;28;20052;-68
2021/08/15 12:47:25;;;;;;;;;;;19.40;99.90;;;;;;5072927;28;20025;-68
2021/08/15 12:49:53;;;;;;;3.15;1.08;;;19.30;99.90;;;;;;5072505;28;19915;-69
2021/08/15 12:52:27;;;;;;;14.10;1.45;;;19.30;99.90;;;;;;5072249;28;20068;-69
2021/08/15 12:55:13;;;;;;;6.00;1.27;;;19.40;99.90;;;;;;5072159;28;20528;-69
2021/08/15 12:57:42;;;;;;;5.28;1.25;;;19.50;99.90;;;;;;5072631;28;20025;-69
2021/08/15 13:00:09;;;;;;;6.83;1.20;;;19.50;99.90;;;;;;5072414;28;20495;-68
2021/08/15 13:02:36;;;;;;;4.72;1.48;;;19.40;99.90;;;;;;5058893;28;20392;-69
2021/08/15 13:05:03;;;;;;;5.35;1.10;;;19.40;99.90;;;;;;5052314;28;20032;-69
2021/08/15 13:07:30;;;;;;;2.72;1.08;;;19.50;99.90;;;;;;5052173;28;20484;-68
2021/08/15 13:09:56;;;;;;;1.50;0.90;;;19.50;99.90;;;;;;5052142;28;20548;-68
2021/08/15 13:12:23;;;;;;;1.48;0.75;;;19.40;99.40;;;;;;5052175;28;20021;-68
2021/08/15 13:14:49;;;;;;;3.67;0.90;;;19.40;98.90;;;;;;5052346;28;20538;-69
2021/08/15 13:17:15;;;;;;;2.33;1.02;;;19.40;99.60;;;;;;5052802;28;20033;-69
2021/08/15 13:19:42;;;;;;;6.05;1.42;;;19.30;99.10;;;;;;5051917;28;20079;-69
2021/08/15 13:22:08;;;;;;;3.63;1.00;;;19.30;99.60;;;;;;5051900;28;20464;-68
2021/08/15 13:24:35;;;;;;;2.85;0.80;;;19.40;99.70;;;;;;5052127;28;20037;-68